createdAt,value
2023-03-11T00:01:31.622Z,98418.15
2023-03-11T00:04:01.195Z,98417.24
2023-03-11T00:06:29.627Z,98411.15
2023-03-11T00:09:07.042Z,98406.48
2023-03-11T00:11:36.313Z,98405.11
2023-03-11T00:14:06.524Z,98401.03
2023-03-11T00:16:35.557Z,98396.58
2023-03-11T00:19:06.050Z,98396.64
2023-03-11T00:21:35.249Z,98391.30
2023-03-11T00:24:04.448Z,98390.41
2023-03-11T00:26:33.439Z,98389.38
2023-03-11T00:29:02.435Z,98384.40
2023-03-11T00:31:48.233Z,98385.98
2023-03-11T00:34:22.125Z,98376.63
2023-03-11T00:36:50.811Z,98375.85
2023-03-11T00:39:19.295Z,98374.15
2023-03-11T00:41:57.913Z,98375.41
2023-03-11T00:44:29.363Z,98372.85
2023-03-11T00:46:59.893Z,98363.16
2023-03-11T00:49:28.478Z,98361.38
2023-03-11T00:51:57.266Z,98359.62
2023-03-11T00:54:28.818Z,98356.64
2023-03-11T00:56:57.609Z,98354.79
2023-03-11T00:59:27.736Z,98355.83
2023-03-11T01:01:56.312Z,98347.98
2023-03-11T01:04:26.005Z,98346.67
2023-03-11T01:06:56.038Z,98345.56
2023-03-11T01:09:24.522Z,98335.95
2023-03-11T01:12:04.165Z,98336.80
2023-03-11T01:14:33.062Z,98331.35
2023-03-11T01:17:05.104Z,98325.82
2023-03-11T01:19:39.441Z,98323.77
2023-03-11T01:22:08.542Z,98321.02
2023-03-11T01:24:57.213Z,98323.42
2023-03-11T01:27:31.326Z,98314.21
2023-03-11T01:30:13.129Z,98314.70
2023-03-11T01:32:53.509Z,98314.03
2023-03-11T01:35:30.866Z,98310.84
2023-03-11T01:38:01.171Z,98313.96
2023-03-11T01:40:33.118Z,98311.46
2023-03-11T01:43:25.782Z,98306.92
2023-03-11T01:45:54.268Z,98309.31
2023-03-11T01:50:01.876Z,98307.15
2023-03-11T01:52:31.167Z,98305.90
2023-03-11T01:55:00.065Z,98305.20
2023-03-11T01:57:29.770Z,98300.05
2023-03-11T01:59:58.866Z,98298.21
2023-03-11T02:02:41.760Z,98296.73
2023-03-11T02:05:17.947Z,98290.73
2023-03-11T02:07:46.941Z,98289.70
2023-03-11T02:10:42.049Z,98285.15
2023-03-11T02:13:11.249Z,98282.82
2023-03-11T02:15:40.311Z,98277.68
2023-03-11T02:18:10.672Z,98281.33
2023-03-11T02:20:55.258Z,98277.20
2023-03-11T02:23:26.512Z,98279.19
2023-03-11T02:26:13.700Z,98276.52
2023-03-11T02:28:46.278Z,98278.02
2023-03-11T02:31:15.324Z,98276.32
2023-03-11T02:33:44.265Z,98277.89
2023-03-11T02:36:31.921Z,98278.85
2023-03-11T02:39:03.040Z,98272.13
2023-03-11T02:41:33.197Z,98273.40
2023-03-11T02:44:02.565Z,98265.73
2023-03-11T02:46:33.089Z,98262.86
2023-03-11T02:49:07.614Z,98264.33
2023-03-11T02:51:36.826Z,98262.34
2023-03-11T02:54:08.570Z,98258.67
2023-03-11T02:56:37.564Z,98259.17
2023-03-11T02:59:06.048Z,98256.31
2023-03-11T03:01:38.926Z,98255.56
2023-03-11T03:04:07.842Z,98250.23
2023-03-11T03:06:37.844Z,98246.75
2023-03-11T03:09:07.203Z,98242.45
2023-03-11T03:11:36.132Z,98242.13
2023-03-11T03:14:04.304Z,98241.77
2023-03-11T03:16:33.343Z,98237.83
2023-03-11T03:19:02.304Z,98237.08
2023-03-11T03:21:33.333Z,98234.08
2023-03-11T03:24:02.739Z,98231.46
2023-03-11T03:26:32.959Z,98226.73
2023-03-11T03:29:01.546Z,98223.09
2023-03-11T03:31:30.202Z,98218.44
2023-03-11T03:34:00.249Z,98220.11
2023-03-11T03:36:29.038Z,98213.73
2023-03-11T03:39:02.842Z,98208.35
2023-03-11T03:41:34.294Z,98203.55
2023-03-11T03:44:10.045Z,98200.01
2023-03-11T03:46:40.170Z,98196.19
2023-03-11T03:49:09.743Z,98189.59
2023-03-11T03:51:39.893Z,98183.95
2023-03-11T03:54:12.578Z,98181.88
2023-03-11T03:56:41.397Z,98179.10
2023-03-11T03:59:09.848Z,98174.89
2023-03-11T04:01:42.323Z,98171.48
2023-03-11T04:04:11.320Z,98163.85
2023-03-11T04:06:39.905Z,98159.97
2023-03-11T04:09:10.491Z,98156.66
2023-03-11T04:11:39.737Z,98145.86
2023-03-11T04:14:09.958Z,98142.54
2023-03-11T04:16:47.066Z,98143.03
2023-03-11T04:19:18.807Z,98145.86
2023-03-11T04:21:47.895Z,98142.76
2023-03-11T04:24:19.140Z,98142.50
2023-03-11T04:26:47.728Z,98141.33
2023-03-11T04:29:17.740Z,98135.59
2023-03-11T04:31:49.905Z,98137.89
2023-03-11T04:34:21.469Z,98134.31
2023-03-11T04:36:54.551Z,98127.83
2023-03-11T04:39:26.005Z,98126.59
2023-03-11T04:41:57.348Z,98123.88
2023-03-11T04:44:26.648Z,98121.26
2023-03-11T04:47:03.728Z,98119.88
2023-03-11T04:49:33.957Z,98123.63
2023-03-11T04:52:05.710Z,98117.44
2023-03-11T04:54:34.806Z,98120.83
2023-03-11T04:57:03.908Z,98112.02
2023-03-11T04:59:36.683Z,98116.06
2023-03-11T05:02:06.111Z,98110.34
2023-03-11T05:04:35.122Z,98104.94
2023-03-11T05:07:04.587Z,98104.94
2023-03-11T05:09:35.240Z,98103.02
2023-03-11T05:12:04.826Z,98099.16
2023-03-11T05:14:37.615Z,98093.46
2023-03-11T05:17:07.114Z,98091.19
2023-03-11T05:19:35.824Z,98088.73
2023-03-11T05:22:09.674Z,98081.18
2023-03-11T05:24:38.297Z,98075.19
2023-03-11T05:27:11.793Z,98073.73
2023-03-11T05:29:43.822Z,98071.36
2023-03-11T05:32:13.754Z,98066.71
2023-03-11T05:34:46.561Z,98067.70
2023-03-11T05:37:16.477Z,98065.66
2023-03-11T05:39:55.917Z,98062.07
2023-03-11T05:42:25.625Z,98060.52
2023-03-11T05:45:15.928Z,98054.61
2023-03-11T05:48:04.986Z,98047.17
2023-03-11T05:50:38.580Z,98047.36
2023-03-11T05:53:11.271Z,98048.55
2023-03-11T05:55:47.139Z,98046.16
2023-03-11T05:58:23.488Z,98043.99
2023-03-11T06:00:52.122Z,98037.95
2023-03-11T06:03:42.164Z,98041.13
2023-03-11T06:06:12.405Z,98034.18
2023-03-11T06:08:46.131Z,98033.45
2023-03-11T06:11:14.771Z,98035.04
2023-03-11T06:14:09.138Z,98035.79
2023-03-11T06:16:37.952Z,98031.16
2023-03-11T06:19:09.021Z,98034.33
2023-03-11T06:21:41.425Z,98033.35
2023-03-11T06:24:10.922Z,98028.77
2023-03-11T06:26:44.224Z,98032.44
2023-03-11T06:29:24.661Z,98028.90
2023-03-11T06:31:56.087Z,98026.99
2023-03-11T06:34:25.281Z,98026.48
2023-03-11T06:36:55.200Z,98027.91
2023-03-11T06:39:25.915Z,98023.64
2023-03-11T06:41:55.229Z,98017.30
2023-03-11T06:44:28.128Z,98015.83
2023-03-11T06:46:56.659Z,98006.65
2023-03-11T06:49:25.552Z,98007.18
2023-03-11T06:51:55.154Z,98005.11
2023-03-11T06:54:24.246Z,97998.42
2023-03-11T06:56:53.864Z,97990.11
2023-03-11T06:59:31.864Z,97987.13
2023-03-11T07:02:04.653Z,97980.13
2023-03-11T07:04:36.816Z,97971.38
2023-03-11T07:07:05.089Z,97969.89
2023-03-11T07:09:41.458Z,97970.30
2023-03-11T07:12:23.241Z,97961.27
2023-03-11T07:14:57.263Z,97956.48
2023-03-11T07:17:32.434Z,97953.27
2023-03-11T07:20:01.506Z,97951.60
2023-03-11T07:22:30.723Z,97949.13
2023-03-11T07:25:00.302Z,97946.64
2023-03-11T07:27:29.508Z,97944.82
2023-03-11T07:31:21.178Z,97942.49
2023-03-11T07:33:51.060Z,97947.07
2023-03-11T07:36:21.942Z,97941.65
2023-03-11T07:38:55.509Z,97944.58
2023-03-11T07:41:27.947Z,97939.12
2023-03-11T07:43:59.302Z,97937.13
2023-03-11T07:46:29.007Z,97936.73
2023-03-11T07:48:57.537Z,97928.86
2023-03-11T07:51:27.595Z,97921.59
2023-03-11T07:53:56.884Z,97919.92
2023-03-11T07:56:27.176Z,97908.64
2023-03-11T07:58:58.723Z,97903.99
2023-03-11T08:01:36.722Z,97900.77
2023-03-11T08:04:06.333Z,97893.15
2023-03-11T08:06:36.440Z,97891.52
2023-03-11T08:09:10.356Z,97887.98
2023-03-11T08:11:40.774Z,97883.73
2023-03-11T08:14:09.567Z,97875.19
2023-03-11T08:16:41.441Z,97866.02
2023-03-11T08:19:16.427Z,97865.58
2023-03-11T08:21:44.851Z,97857.27
2023-03-11T08:24:14.141Z,97855.22
2023-03-11T08:26:43.227Z,97859.96
2023-03-11T08:29:12.240Z,97855.16
2023-03-11T08:31:40.817Z,97848.84
2023-03-11T08:34:10.942Z,97845.13
2023-03-11T08:36:40.187Z,97843.23
2023-03-11T08:39:09.997Z,97839.13
2023-03-11T08:41:39.286Z,97832.02
2023-03-11T08:44:10.843Z,97831.32
2023-03-11T08:46:47.126Z,97821.15
2023-03-11T08:49:17.922Z,97812.77
2023-03-11T08:51:47.244Z,97813.55
2023-03-11T08:54:18.419Z,97809.49
2023-03-11T08:56:57.479Z,97813.14
2023-03-11T08:59:25.952Z,97808.20
2023-03-11T09:01:54.358Z,97807.30
2023-03-11T09:04:22.966Z,97809.20
2023-03-11T09:06:51.922Z,97805.81
2023-03-11T09:09:21.533Z,97805.09
2023-03-11T09:11:52.224Z,97801.30
2023-03-11T09:14:23.773Z,97813.67
2023-03-11T09:16:56.044Z,97806.16
2023-03-11T09:19:24.675Z,97799.49
2023-03-11T09:21:54.264Z,97797.54
2023-03-11T09:24:25.082Z,97794.00
2023-03-11T09:27:02.905Z,97789.50
2023-03-11T09:29:38.256Z,97778.23
2023-03-11T09:32:07.087Z,97788.14
2023-03-11T09:34:45.307Z,97770.88
2023-03-11T09:37:19.308Z,97772.88
2023-03-11T09:39:54.852Z,97772.20
2023-03-11T09:43:10.203Z,97764.23
2023-03-11T09:46:12.006Z,97752.90
2023-03-11T09:49:23.803Z,97749.27
2023-03-11T09:52:50.698Z,97749.05
2023-03-11T09:56:03.765Z,97736.13
2023-03-11T09:59:48.445Z,97740.14
2023-03-11T10:03:11.543Z,97726.98
2023-03-11T10:06:55.297Z,97715.34
2023-03-11T10:10:04.703Z,97700.99
2023-03-11T10:12:55.276Z,97693.83
2023-03-11T10:16:09.493Z,97681.66
2023-03-11T10:19:57.072Z,97670.97
2023-03-11T10:23:30.453Z,97656.13
2023-03-11T10:27:18.402Z,97645.69
2023-03-11T10:30:06.781Z,97623.52
2023-03-11T10:33:10.960Z,97625.33
2023-03-11T10:36:00.748Z,97630.35
2023-03-11T10:39:04.633Z,97638.25
2023-03-11T10:42:05.912Z,97631.40
2023-03-11T10:44:44.382Z,97628.05
2023-03-11T10:47:45.840Z,97614.57
2023-03-11T10:50:41.390Z,97619.84
2023-03-11T10:53:30.179Z,97618.54
2023-03-11T10:56:15.096Z,97612.74
2023-03-11T10:58:55.326Z,97604.58
2023-03-11T11:01:48.074Z,97596.34
2023-03-11T11:04:42.367Z,97595.07
2023-03-11T11:07:56.483Z,97593.86
2023-03-11T11:10:56.197Z,97588.17
2023-03-11T11:14:04.765Z,97578.59
2023-03-11T11:16:39.561Z,97570.27
2023-03-11T11:19:43.051Z,97560.48
2023-03-11T11:22:46.219Z,97555.69
2023-03-11T11:26:08.521Z,97549.46
2023-03-11T11:29:09.992Z,97541.25
2023-03-11T11:31:51.093Z,97536.91
2023-03-11T11:34:34.133Z,97526.66
2023-03-11T11:37:06.294Z,97526.88
2023-03-11T11:39:58.932Z,97523.27
2023-03-11T11:43:03.749Z,97524.05
2023-03-11T11:45:46.936Z,97520.61
2023-03-11T11:48:50.832Z,97516.03
2023-03-11T11:52:05.886Z,97511.06
2023-03-11T11:54:57.753Z,97506.01
2023-03-11T11:58:30.846Z,97510.00
2023-03-11T12:02:10.489Z,97504.55
2023-03-11T12:05:06.841Z,97496.59
2023-03-11T12:08:47.392Z,97492.80
2023-03-11T12:12:28.626Z,97493.39
2023-03-11T12:16:27.169Z,97493.72
2023-03-11T12:19:53.161Z,97486.95
2023-03-11T12:22:58.628Z,97488.95
2023-03-11T12:26:13.082Z,97484.62
2023-03-11T12:28:56.771Z,97484.60
2023-03-11T12:31:53.197Z,97480.55
2023-03-11T12:34:59.979Z,97477.24
2023-03-11T12:38:21.086Z,97472.16
2023-03-11T12:41:28.234Z,97469.05
2023-03-11T12:44:54.085Z,97474.34
2023-03-11T12:48:23.818Z,97464.27
2023-03-11T12:51:06.222Z,97465.00
2023-03-11T12:54:00.901Z,97455.45
2023-03-11T12:56:53.989Z,97454.34
2023-03-11T13:00:32.796Z,97451.71
2023-03-11T13:03:54.453Z,97450.56
2023-03-11T13:07:18.082Z,97442.39
2023-03-11T13:10:56.293Z,97439.11
2023-03-11T13:14:07.690Z,97437.92
2023-03-11T13:17:56.346Z,97436.12
2023-03-11T13:21:39.379Z,97432.00
2023-03-11T13:24:58.399Z,97425.95
2023-03-11T13:27:50.727Z,97418.90
2023-03-11T13:31:06.509Z,97416.02
2023-03-11T13:34:12.529Z,97419.58
2023-03-11T13:37:41.080Z,97412.82
2023-03-11T13:40:15.126Z,97410.89
2023-03-11T13:44:29.612Z,97409.40
2023-03-11T13:47:38.861Z,97395.70
2023-03-11T13:51:29.818Z,97395.00
2023-03-11T13:55:13.421Z,97385.77
2023-03-11T13:58:47.288Z,97385.27
2023-03-11T14:02:39.653Z,97379.27
2023-03-11T14:09:46.035Z,97374.17
2023-03-11T14:13:04.132Z,97377.27
2023-03-11T14:16:04.468Z,97374.70
2023-03-11T14:19:12.615Z,97376.77
2023-03-11T14:22:28.828Z,97373.39
2023-03-11T14:25:15.524Z,97375.30
2023-03-11T14:28:26.507Z,97376.73
2023-03-11T14:31:06.621Z,97377.59
2023-03-11T14:34:05.110Z,97382.19
2023-03-11T14:36:57.109Z,97385.19
2023-03-11T14:40:08.031Z,97381.23
2023-03-11T14:42:56.475Z,97386.02
2023-03-11T14:46:26.469Z,97380.73
2023-03-11T14:49:30.247Z,97386.74
2023-03-11T14:53:04.707Z,97384.38
2023-03-11T14:55:45.606Z,97381.69
2023-03-11T14:59:13.079Z,97376.43
2023-03-11T15:02:01.418Z,97376.25
2023-03-11T15:05:06.386Z,97375.03
2023-03-11T15:07:47.751Z,97374.70
2023-03-11T15:11:07.629Z,97371.25
2023-03-11T15:13:52.060Z,97369.84
2023-03-11T15:16:52.897Z,97372.88
2023-03-11T15:19:46.217Z,97367.81
2023-03-11T15:22:42.344Z,97370.99
2023-03-11T15:25:22.501Z,97370.83
2023-03-11T15:27:52.355Z,97372.49
2023-03-11T15:31:16.853Z,97365.91
2023-03-11T15:34:17.470Z,97365.50
2023-03-11T15:36:59.524Z,97367.94
2023-03-11T15:39:59.517Z,97366.52
2023-03-11T15:42:53.213Z,97364.02
2023-03-11T15:45:49.523Z,97365.08
2023-03-11T15:49:06.656Z,97365.34
2023-03-11T15:51:51.614Z,97370.68
2023-03-11T15:54:56.106Z,97367.48
2023-03-11T15:57:52.264Z,97365.34
2023-03-11T16:00:56.396Z,97368.78
2023-03-11T16:03:31.565Z,97371.85
2023-03-11T16:06:23.246Z,97375.04
2023-03-11T16:09:05.404Z,97375.20
2023-03-11T16:11:44.980Z,97381.42
2023-03-11T16:14:25.538Z,97383.98
2023-03-11T16:17:23.690Z,97385.27
2023-03-11T16:20:20.638Z,97380.94
2023-03-11T16:23:02.733Z,97377.28
2023-03-11T16:25:49.348Z,97374.73
2023-03-11T16:28:47.334Z,97371.92
2023-03-11T16:31:30.785Z,97370.96
2023-03-11T16:34:09.798Z,97371.58
2023-03-11T16:36:57.506Z,97370.91
2023-03-11T16:39:40.845Z,97369.45
2023-03-11T16:42:43.746Z,97368.31
2023-03-11T16:45:32.270Z,97368.85
2023-03-11T16:48:22.774Z,97369.74
2023-03-11T16:51:14.809Z,97375.52
2023-03-11T16:54:22.353Z,97374.95
2023-03-11T16:57:08.502Z,97371.44
2023-03-11T17:00:37.645Z,97367.64
2023-03-11T17:03:42.714Z,97367.73
2023-03-11T17:06:37.846Z,97363.38
2023-03-11T17:10:05.924Z,97365.46
2023-03-11T17:16:31.432Z,97370.03
2023-03-11T17:19:15.328Z,97373.54
2023-03-11T17:21:59.587Z,97370.40
2023-03-11T17:28:35.669Z,97368.70
2023-03-11T17:31:24.742Z,97366.36
2023-03-11T17:34:18.783Z,97366.87
2023-03-11T17:36:48.951Z,97366.45
2023-03-11T17:39:22.680Z,97362.73
2023-03-11T17:41:57.731Z,97360.90
2023-03-11T17:44:59.370Z,97363.83
2023-03-11T17:47:50.566Z,97358.56
2023-03-11T17:51:10.713Z,97358.59
2023-03-11T17:54:03.485Z,97347.91
2023-03-11T17:57:05.503Z,97342.73
2023-03-11T17:59:56.632Z,97343.73
2023-03-11T18:02:37.973Z,97346.89
2023-03-11T18:05:26.748Z,97347.73
2023-03-11T18:08:01.253Z,97349.98
2023-03-11T18:11:02.099Z,97345.92
2023-03-11T18:13:33.017Z,97340.01
2023-03-11T18:16:14.298Z,97340.09
2023-03-11T18:19:36.212Z,97341.24
2023-03-11T18:22:07.163Z,97339.11
2023-03-11T18:24:38.607Z,97332.59
2023-03-11T18:27:10.656Z,97332.04
2023-03-11T18:29:40.315Z,97330.00
2023-03-11T18:32:16.663Z,97328.13
2023-03-11T18:35:06.250Z,97329.02
2023-03-11T18:37:54.395Z,97333.98
2023-03-11T18:40:31.146Z,97328.41
2023-03-11T18:43:03.780Z,97326.80
2023-03-11T18:45:35.642Z,97335.64
2023-03-11T18:48:04.637Z,97336.92
2023-03-11T18:50:51.416Z,97341.14
2023-03-11T18:53:25.282Z,97336.95
2023-03-11T18:56:02.359Z,97340.42
2023-03-11T18:58:34.727Z,97340.67
2023-03-11T19:01:14.435Z,97337.02
2023-03-11T19:03:48.879Z,97337.33
2023-03-11T19:06:17.719Z,97337.20
2023-03-11T19:08:56.194Z,97338.44
2023-03-11T19:11:30.890Z,97340.49
2023-03-11T19:14:03.021Z,97342.46
2023-03-11T19:16:57.564Z,97343.17
2023-03-11T19:19:27.231Z,97350.89
2023-03-11T19:22:40.023Z,97350.80
2023-03-11T19:25:12.041Z,97355.99
2023-03-11T19:27:48.485Z,97355.88
2023-03-11T19:30:20.603Z,97351.52
2023-03-11T19:32:53.263Z,97346.63
2023-03-11T19:35:22.037Z,97348.85
2023-03-11T19:37:57.458Z,97344.46
2023-03-11T19:40:30.336Z,97344.20
2023-03-11T19:43:02.911Z,97336.44
2023-03-11T19:45:33.595Z,97330.50
2023-03-11T19:48:13.185Z,97331.18
2023-03-11T19:50:48.941Z,97327.48
2023-03-11T19:53:18.112Z,97330.04
2023-03-11T19:55:48.162Z,97330.92
2023-03-11T19:58:20.062Z,97331.88
2023-03-11T20:00:51.775Z,97331.14
2023-03-11T20:03:23.763Z,97330.48
2023-03-11T20:05:54.780Z,97334.17
2023-03-11T20:08:26.569Z,97338.86
2023-03-11T20:11:00.930Z,97337.58
2023-03-11T20:13:29.722Z,97335.35
2023-03-11T20:16:07.498Z,97329.80
2023-03-11T20:18:40.409Z,97327.91
2023-03-11T20:21:27.391Z,97331.60
2023-03-11T20:23:59.054Z,97330.92
2023-03-11T20:26:27.724Z,97328.59
2023-03-11T20:28:56.849Z,97327.52
2023-03-11T20:31:29.244Z,97329.22
2023-03-11T20:34:02.781Z,97327.89
2023-03-11T20:36:35.208Z,97331.10
2023-03-11T20:39:04.402Z,97337.26
2023-03-11T20:41:47.002Z,97340.15
2023-03-11T20:44:15.386Z,97338.89
2023-03-11T20:46:44.637Z,97336.59
2023-03-11T20:49:13.174Z,97331.44
2023-03-11T20:51:43.991Z,97323.48
2023-03-11T20:54:13.108Z,97323.18
2023-03-11T20:56:42.799Z,97319.84
2023-03-11T20:59:14.064Z,97322.82
2023-03-11T21:01:46.216Z,97323.55
2023-03-11T21:04:18.200Z,97328.54
2023-03-11T21:06:50.065Z,97328.92
2023-03-11T21:09:42.546Z,97332.35
2023-03-11T21:12:31.695Z,97330.09
2023-03-11T21:15:03.283Z,97333.98
2023-03-11T21:17:41.588Z,97336.20
2023-03-11T21:20:26.672Z,97345.44
2023-03-11T21:23:01.833Z,97342.33
2023-03-11T21:25:42.865Z,97332.08
2023-03-11T21:28:20.410Z,97336.13
2023-03-11T21:31:18.448Z,97332.89
2023-03-11T21:33:52.801Z,97336.48
2023-03-11T21:36:30.930Z,97339.11
2023-03-11T21:39:02.878Z,97337.72
2023-03-11T21:41:35.015Z,97333.23
2023-03-11T21:44:09.373Z,97335.84
2023-03-11T21:46:42.120Z,97336.70
2023-03-11T21:49:16.945Z,97337.80
2023-03-11T21:51:46.535Z,97345.23
2023-03-11T21:54:26.863Z,97347.87
2023-03-11T21:57:00.641Z,97347.27
2023-03-11T21:59:42.771Z,97355.86
2023-03-11T22:02:14.765Z,97361.84
2023-03-11T22:04:43.833Z,97365.31
2023-03-11T22:07:12.901Z,97368.81
2023-03-11T22:09:53.532Z,97372.25
2023-03-11T22:12:47.244Z,97374.63
2023-03-11T22:15:16.956Z,97375.75
2023-03-11T22:17:50.243Z,97374.71
2023-03-11T22:20:19.040Z,97372.94
2023-03-11T22:23:08.068Z,97373.35
2023-03-11T22:25:40.469Z,97379.83
2023-03-11T22:28:12.330Z,97380.75
2023-03-11T22:31:03.830Z,97383.11
2023-03-11T22:33:35.370Z,97382.94
2023-03-11T22:36:05.243Z,97384.35
2023-03-11T22:38:54.348Z,97381.35
2023-03-11T22:41:32.266Z,97382.41
2023-03-11T22:44:04.210Z,97383.16
2023-03-11T22:46:36.991Z,97381.65
2023-03-11T22:49:08.877Z,97381.52
2023-03-11T22:51:38.201Z,97390.97
2023-03-11T22:54:07.290Z,97395.89
2023-03-11T22:56:35.855Z,97400.42
2023-03-11T22:59:04.576Z,97405.81
2023-03-11T23:01:33.612Z,97409.32
2023-03-11T23:04:05.067Z,97410.02
2023-03-11T23:06:33.617Z,97417.10
2023-03-11T23:09:03.355Z,97416.73
2023-03-11T23:11:32.348Z,97423.35
2023-03-11T23:14:01.001Z,97418.42
2023-03-11T23:16:30.162Z,97427.20
2023-03-11T23:18:58.842Z,97424.61
2023-03-11T23:21:31.718Z,97426.20
2023-03-11T23:24:00.911Z,97422.05
2023-03-11T23:26:29.934Z,97424.05
2023-03-11T23:28:59.127Z,97422.26
2023-03-11T23:31:30.567Z,97424.62
2023-03-11T23:33:59.498Z,97420.90
2023-03-11T23:36:30.419Z,97418.64
2023-03-11T23:39:01.951Z,97428.13
2023-03-11T23:41:31.596Z,97420.84
2023-03-11T23:44:01.319Z,97427.22
2023-03-11T23:46:30.307Z,97428.59
2023-03-11T23:48:59.008Z,97435.05
2023-03-11T23:51:30.821Z,97432.92
2023-03-11T23:53:59.565Z,97436.08
2023-03-11T23:56:28.332Z,97434.91
2023-03-11T23:58:56.545Z,97437.88
